sensor_id;sensor_type;location;lat;lon;timestamp;P1;durP1;ratioP1;P2;durP2;ratioP2
49800;SDS011;35698;50.232;30.540;2023-04-03T00:05:13;6.22;;;4.68;;
49800;SDS011;35698;50.232;30.540;2023-04-03T00:06:24;6.43;;;4.65;;
49800;SDS011;35698;50.232;30.540;2023-04-03T00:07:28;8.11;;;4.95;;
49800;SDS011;35698;50.232;30.540;2023-04-03T00:08:39;7.82;;;5.36;;
49800;SDS011;35698;50.232;30.540;2023-04-03T00:09:43;7.28;;;5.28;;
49800;SDS011;35698;50.232;30.540;2023-04-03T00:10:54;8.11;;;4.73;;
49800;SDS011;35698;50.232;30.540;2023-04-03T00:11:57;8.48;;;5.45;;
49800;SDS011;35698;50.232;30.540;2023-04-03T00:13:08;6.74;;;5.25;;
49800;SDS011;35698;50.232;30.540;2023-04-03T00:14:12;7.73;;;4.91;;
49800;SDS011;35698;50.232;30.540;2023-04-03T00:15:23;5.92;;;4.96;;
49800;SDS011;35698;50.232;30.540;2023-04-03T00:16:26;5.88;;;4.65;;
49800;SDS011;35698;50.232;30.540;2023-04-03T00:17:30;7.72;;;4.77;;
49800;SDS011;35698;50.232;30.540;2023-04-03T00:18:41;5.47;;;4.59;;
49800;SDS011;35698;50.232;30.540;2023-04-03T00:19:44;8.88;;;5.54;;
49800;SDS011;35698;50.232;30.540;2023-04-03T00:20:55;6.90;;;5.44;;
49800;SDS011;35698;50.232;30.540;2023-04-03T00:21:58;6.92;;;4.96;;
49800;SDS011;35698;50.232;30.540;2023-04-03T00:23:10;8.64;;;5.22;;
49800;SDS011;35698;50.232;30.540;2023-04-03T00:24:13;7.04;;;5.23;;
49800;SDS011;35698;50.232;30.540;2023-04-03T00:25:24;5.69;;;4.87;;
49800;SDS011;35698;50.232;30.540;2023-04-03T00:26:28;6.97;;;5.40;;
49800;SDS011;35698;50.232;30.540;2023-04-03T00:27:35;6.07;;;5.21;;
49800;SDS011;35698;50.232;30.540;2023-04-03T00:28:47;6.94;;;5.78;;
49800;SDS011;35698;50.232;30.540;2023-04-03T00:29:51;6.72;;;5.91;;
49800;SDS011;35698;50.232;30.540;2023-04-03T00:31:02;6.15;;;5.49;;
49800;SDS011;35698;50.232;30.540;2023-04-03T00:32:06;7.42;;;4.98;;
49800;SDS011;35698;50.232;30.540;2023-04-03T00:33:11;5.56;;;5.03;;
49800;SDS011;35698;50.232;30.540;2023-04-03T00:34:23;6.06;;;5.24;;
49800;SDS011;35698;50.232;30.540;2023-04-03T00:35:26;6.48;;;5.01;;
49800;SDS011;35698;50.232;30.540;2023-04-03T00:36:31;9.84;;;5.38;;
49800;SDS011;35698;50.232;30.540;2023-04-03T00:37:34;7.15;;;5.59;;
49800;SDS011;35698;50.232;30.540;2023-04-03T00:38:38;6.41;;;4.92;;
49800;SDS011;35698;50.232;30.540;2023-04-03T00:39:49;6.89;;;5.16;;
49800;SDS011;35698;50.232;30.540;2023-04-03T00:40:52;7.19;;;5.79;;
49800;SDS011;35698;50.232;30.540;2023-04-03T00:41:56;8.31;;;5.87;;
49800;SDS011;35698;50.232;30.540;2023-04-03T00:45:52;8.44;;;6.58;;
49800;SDS011;35698;50.232;30.540;2023-04-03T00:48:31;17.57;;;11.71;;
49800;SDS011;35698;50.232;30.540;2023-04-03T00:49:44;31.94;;;18.70;;
49800;SDS011;35698;50.232;30.540;2023-04-03T00:50:48;37.36;;;22.68;;
49800;SDS011;35698;50.232;30.540;2023-04-03T00:52:16;29.39;;;17.28;;
49800;SDS011;35698;50.232;30.540;2023-04-03T00:53:41;18.00;;;12.27;;
49800;SDS011;35698;50.232;30.540;2023-04-03T00:55:01;16.05;;;10.70;;
49800;SDS011;35698;50.232;30.540;2023-04-03T00:56:07;9.55;;;7.11;;
49800;SDS011;35698;50.232;30.540;2023-04-03T00:57:32;8.78;;;6.06;;
49800;SDS011;35698;50.232;30.540;2023-04-03T00:58:55;6.77;;;5.08;;
49800;SDS011;35698;50.232;30.540;2023-04-03T01:00:23;6.48;;;4.85;;
49800;SDS011;35698;50.232;30.540;2023-04-03T01:01:45;5.73;;;4.75;;
49800;SDS011;35698;50.232;30.540;2023-04-03T01:02:56;6.22;;;4.60;;
49800;SDS011;35698;50.232;30.540;2023-04-03T01:04:03;5.04;;;4.38;;
49800;SDS011;35698;50.232;30.540;2023-04-03T01:05:25;5.19;;;4.67;;
49800;SDS011;35698;50.232;30.540;2023-04-03T01:06:46;5.37;;;4.37;;
49800;SDS011;35698;50.232;30.540;2023-04-03T01:08:08;6.27;;;4.71;;
49800;SDS011;35698;50.232;30.540;2023-04-03T01:09:29;6.52;;;4.49;;
49800;SDS011;35698;50.232;30.540;2023-04-03T01:10:34;7.76;;;4.99;;
49800;SDS011;35698;50.232;30.540;2023-04-03T01:11:38;8.48;;;4.89;;
49800;SDS011;35698;50.232;30.540;2023-04-03T01:12:49;12.07;;;5.76;;
49800;SDS011;35698;50.232;30.540;2023-04-03T01:13:54;9.46;;;5.82;;
49800;SDS011;35698;50.232;30.540;2023-04-03T01:16:30;12.40;;;8.67;;
49800;SDS011;35698;50.232;30.540;2023-04-03T01:17:35;17.62;;;12.69;;
49800;SDS011;35698;50.232;30.540;2023-04-03T01:21:49;23.71;;;16.94;;
49800;SDS011;35698;50.232;30.540;2023-04-03T01:24:25;22.75;;;15.85;;
49800;SDS011;35698;50.232;30.540;2023-04-03T01:25:41;16.90;;;12.01;;
49800;SDS011;35698;50.232;30.540;2023-04-03T01:27:05;11.71;;;9.67;;
49800;SDS011;35698;50.232;30.540;2023-04-03T01:28:12;11.08;;;8.40;;
49800;SDS011;35698;50.232;30.540;2023-04-03T01:29:17;9.14;;;7.39;;
49800;SDS011;35698;50.232;30.540;2023-04-03T01:30:21;10.45;;;6.34;;
49800;SDS011;35698;50.232;30.540;2023-04-03T01:32:45;4.75;;;4.12;;
49800;SDS011;35698;50.232;30.540;2023-04-03T01:33:56;6.46;;;4.65;;
49800;SDS011;35698;50.232;30.540;2023-04-03T01:34:59;5.28;;;4.64;;
49800;SDS011;35698;50.232;30.540;2023-04-03T01:36:03;5.14;;;4.04;;
49800;SDS011;35698;50.232;30.540;2023-04-03T01:37:15;6.53;;;4.24;;
49800;SDS011;35698;50.232;30.540;2023-04-03T01:38:18;5.22;;;4.20;;
49800;SDS011;35698;50.232;30.540;2023-04-03T01:39:22;5.80;;;4.70;;
49800;SDS011;35698;50.232;30.540;2023-04-03T01:40:33;5.59;;;4.43;;
49800;SDS011;35698;50.232;30.540;2023-04-03T01:41:36;5.66;;;4.10;;
49800;SDS011;35698;50.232;30.540;2023-04-03T01:42:47;5.82;;;4.33;;
49800;SDS011;35698;50.232;30.540;2023-04-03T01:43:51;6.62;;;4.54;;
49800;SDS011;35698;50.232;30.540;2023-04-03T01:44:57;5.36;;;4.17;;
49800;SDS011;35698;50.232;30.540;2023-04-03T01:46:00;6.29;;;4.97;;
49800;SDS011;35698;50.232;30.540;2023-04-03T01:47:12;5.70;;;4.27;;
49800;SDS011;35698;50.232;30.540;2023-04-03T01:48:15;6.37;;;4.85;;
49800;SDS011;35698;50.232;30.540;2023-04-03T01:49:19;4.66;;;4.12;;
49800;SDS011;35698;50.232;30.540;2023-04-03T01:50:30;5.26;;;4.44;;
49800;SDS011;35698;50.232;30.540;2023-04-03T01:51:33;5.33;;;4.40;;
49800;SDS011;35698;50.232;30.540;2023-04-03T01:52:44;7.34;;;4.88;;
49800;SDS011;35698;50.232;30.540;2023-04-03T01:53:47;6.29;;;5.03;;
49800;SDS011;35698;50.232;30.540;2023-04-03T01:55:01;5.64;;;4.71;;
49800;SDS011;35698;50.232;30.540;2023-04-03T01:56:05;6.19;;;4.87;;
49800;SDS011;35698;50.232;30.540;2023-04-03T01:57:27;8.74;;;5.78;;
49800;SDS011;35698;50.232;30.540;2023-04-03T01:58:38;5.63;;;5.01;;
49800;SDS011;35698;50.232;30.540;2023-04-03T01:59:41;7.55;;;5.45;;
49800;SDS011;35698;50.232;30.540;2023-04-03T02:01:03;7.55;;;5.68;;
49800;SDS011;35698;50.232;30.540;2023-04-03T02:02:07;6.39;;;5.24;;
49800;SDS011;35698;50.232;30.540;2023-04-03T02:03:10;6.11;;;5.13;;
49800;SDS011;35698;50.232;30.540;2023-04-03T02:04:21;10.08;;;5.21;;
49800;SDS011;35698;50.232;30.540;2023-04-03T02:05:25;9.54;;;5.44;;
49800;SDS011;35698;50.232;30.540;2023-04-03T02:06:46;6.75;;;4.99;;
49800;SDS011;35698;50.232;30.540;2023-04-03T02:07:57;6.52;;;5.11;;
49800;SDS011;35698;50.232;30.540;2023-04-03T02:09:01;6.59;;;5.54;;
49800;SDS011;35698;50.232;30.540;2023-04-03T02:10:22;6.96;;;5.29;;
49800;SDS011;35698;50.232;30.540;2023-04-03T02:11:29;6.91;;;5.29;;
49800;SDS011;35698;50.232;30.540;2023-04-03T02:12:40;6.77;;;5.82;;
49800;SDS011;35698;50.232;30.540;2023-04-03T02:13:43;5.91;;;5.21;;
49800;SDS011;35698;50.232;30.540;2023-04-03T02:15:05;7.38;;;6.03;;
49800;SDS011;35698;50.232;30.540;2023-04-03T02:16:09;7.56;;;6.68;;
49800;SDS011;35698;50.232;30.540;2023-04-03T02:17:31;9.56;;;7.05;;
49800;SDS011;35698;50.232;30.540;2023-04-03T02:18:43;10.28;;;8.23;;
49800;SDS011;35698;50.232;30.540;2023-04-03T02:19:46;9.65;;;7.89;;
49800;SDS011;35698;50.232;30.540;2023-04-03T02:21:07;10.26;;;7.85;;
49800;SDS011;35698;50.232;30.540;2023-04-03T02:22:18;9.92;;;7.25;;
49800;SDS011;35698;50.232;30.540;2023-04-03T02:23:21;10.32;;;7.30;;
49800;SDS011;35698;50.232;30.540;2023-04-03T02:24:43;8.03;;;6.73;;
49800;SDS011;35698;50.232;30.540;2023-04-03T02:25:49;7.61;;;6.80;;
49800;SDS011;35698;50.232;30.540;2023-04-03T02:27:10;10.40;;;7.04;;
49800;SDS011;35698;50.232;30.540;2023-04-03T02:28:21;10.19;;;6.65;;
49800;SDS011;35698;50.232;30.540;2023-04-03T02:30:55;8.98;;;6.74;;
49800;SDS011;35698;50.232;30.540;2023-04-03T02:31:59;8.24;;;6.84;;
49800;SDS011;35698;50.232;30.540;2023-04-03T02:33:02;8.18;;;6.75;;
49800;SDS011;35698;50.232;30.540;2023-04-03T02:34:05;7.23;;;6.27;;
49800;SDS011;35698;50.232;30.540;2023-04-03T02:35:27;8.02;;;6.95;;
49800;SDS011;35698;50.232;30.540;2023-04-03T02:36:30;7.56;;;6.46;;
49800;SDS011;35698;50.232;30.540;2023-04-03T02:37:41;8.25;;;6.97;;
49800;SDS011;35698;50.232;30.540;2023-04-03T02:38:44;8.99;;;7.03;;
49800;SDS011;35698;50.232;30.540;2023-04-03T02:39:55;9.23;;;6.64;;
49800;SDS011;35698;50.232;30.540;2023-04-03T02:42:16;10.28;;;6.85;;
49800;SDS011;35698;50.232;30.540;2023-04-03T02:43:27;10.57;;;7.28;;
49800;SDS011;35698;50.232;30.540;2023-04-03T02:44:30;8.96;;;7.27;;
49800;SDS011;35698;50.232;30.540;2023-04-03T02:45:33;9.51;;;7.33;;
49800;SDS011;35698;50.232;30.540;2023-04-03T02:46:44;10.65;;;7.96;;
49800;SDS011;35698;50.232;30.540;2023-04-03T02:47:47;11.77;;;8.62;;
49800;SDS011;35698;50.232;30.540;2023-04-03T02:48:51;10.92;;;8.18;;
49800;SDS011;35698;50.232;30.540;2023-04-03T02:49:54;11.22;;;7.36;;
49800;SDS011;35698;50.232;30.540;2023-04-03T02:51:05;11.13;;;7.72;;
49800;SDS011;35698;50.232;30.540;2023-04-03T02:52:08;8.90;;;7.41;;
49800;SDS011;35698;50.232;30.540;2023-04-03T02:53:12;8.64;;;6.67;;
49800;SDS011;35698;50.232;30.540;2023-04-03T02:54:15;16.59;;;7.47;;
49800;SDS011;35698;50.232;30.540;2023-04-03T02:55:26;9.78;;;7.16;;
49800;SDS011;35698;50.232;30.540;2023-04-03T02:56:29;11.91;;;7.81;;
49800;SDS011;35698;50.232;30.540;2023-04-03T02:57:40;10.78;;;7.57;;
49800;SDS011;35698;50.232;30.540;2023-04-03T02:58:44;10.57;;;7.42;;
49800;SDS011;35698;50.232;30.540;2023-04-03T02:59:55;8.74;;;7.01;;
49800;SDS011;35698;50.232;30.540;2023-04-03T03:00:58;9.46;;;7.34;;
49800;SDS011;35698;50.232;30.540;2023-04-03T03:02:09;9.72;;;6.51;;
49800;SDS011;35698;50.232;30.540;2023-04-03T03:03:13;9.01;;;6.77;;
49800;SDS011;35698;50.232;30.540;2023-04-03T03:04:24;11.13;;;7.63;;
49800;SDS011;35698;50.232;30.540;2023-04-03T03:05:27;8.55;;;7.03;;
49800;SDS011;35698;50.232;30.540;2023-04-03T03:06:49;9.00;;;7.47;;
49800;SDS011;35698;50.232;30.540;2023-04-03T03:08:00;8.54;;;7.63;;
49800;SDS011;35698;50.232;30.540;2023-04-03T03:09:03;10.96;;;7.50;;
49800;SDS011;35698;50.232;30.540;2023-04-03T03:10:25;7.75;;;6.92;;
49800;SDS011;35698;50.232;30.540;2023-04-03T03:11:39;8.39;;;7.35;;
49800;SDS011;35698;50.232;30.540;2023-04-03T03:12:42;7.99;;;6.81;;
49800;SDS011;35698;50.232;30.540;2023-04-03T03:16:32;7.40;;;6.64;;
49800;SDS011;35698;50.232;30.540;2023-04-03T03:17:35;9.15;;;6.21;;
49800;SDS011;35698;50.232;30.540;2023-04-03T03:18:38;7.04;;;6.29;;
49800;SDS011;35698;50.232;30.540;2023-04-03T03:19:43;8.52;;;6.26;;
49800;SDS011;35698;50.232;30.540;2023-04-03T03:20:56;8.80;;;6.62;;
49800;SDS011;35698;50.232;30.540;2023-04-03T03:22:01;9.22;;;6.24;;
49800;SDS011;35698;50.232;30.540;2023-04-03T03:23:26;8.78;;;6.31;;
49800;SDS011;35698;50.232;30.540;2023-04-03T03:24:30;8.54;;;6.57;;
49800;SDS011;35698;50.232;30.540;2023-04-03T03:25:33;7.09;;;5.96;;
49800;SDS011;35698;50.232;30.540;2023-04-03T03:26:46;7.93;;;5.89;;
49800;SDS011;35698;50.232;30.540;2023-04-03T03:27:49;7.16;;;6.01;;
49800;SDS011;35698;50.232;30.540;2023-04-03T03:29:10;6.46;;;5.60;;
49800;SDS011;35698;50.232;30.540;2023-04-03T03:30:14;6.19;;;5.31;;
49800;SDS011;35698;50.232;30.540;2023-04-03T03:31:18;6.47;;;5.31;;
49800;SDS011;35698;50.232;30.540;2023-04-03T03:32:39;7.39;;;6.08;;
49800;SDS011;35698;50.232;30.540;2023-04-03T03:33:50;7.13;;;5.76;;
49800;SDS011;35698;50.232;30.540;2023-04-03T03:34:53;7.05;;;5.51;;
49800;SDS011;35698;50.232;30.540;2023-04-03T03:36:05;7.95;;;6.24;;
49800;SDS011;35698;50.232;30.540;2023-04-03T03:37:08;7.28;;;5.69;;
49800;SDS011;35698;50.232;30.540;2023-04-03T03:38:19;6.51;;;5.55;;
49800;SDS011;35698;50.232;30.540;2023-04-03T03:39:23;6.84;;;5.44;;
49800;SDS011;35698;50.232;30.540;2023-04-03T03:40:27;8.79;;;6.16;;
49800;SDS011;35698;50.232;30.540;2023-04-03T03:41:30;6.44;;;5.57;;
49800;SDS011;35698;50.232;30.540;2023-04-03T03:42:51;9.07;;;5.97;;
49800;SDS011;35698;50.232;30.540;2023-04-03T03:43:55;8.21;;;5.78;;
49800;SDS011;35698;50.232;30.540;2023-04-03T03:45:06;7.42;;;5.67;;
49800;SDS011;35698;50.232;30.540;2023-04-03T03:46:10;10.72;;;6.28;;
49800;SDS011;35698;50.232;30.540;2023-04-03T03:47:21;7.42;;;6.44;;
49800;SDS011;35698;50.232;30.540;2023-04-03T03:48:24;6.43;;;5.83;;
49800;SDS011;35698;50.232;30.540;2023-04-03T03:49:30;9.01;;;6.65;;
49800;SDS011;35698;50.232;30.540;2023-04-03T03:50:41;11.48;;;6.82;;
49800;SDS011;35698;50.232;30.540;2023-04-03T03:51:45;8.93;;;6.79;;
49800;SDS011;35698;50.232;30.540;2023-04-03T03:52:56;6.94;;;6.24;;
49800;SDS011;35698;50.232;30.540;2023-04-03T03:53:59;9.06;;;6.75;;
49800;SDS011;35698;50.232;30.540;2023-04-03T03:55:20;9.26;;;6.44;;
49800;SDS011;35698;50.232;30.540;2023-04-03T03:56:42;9.33;;;6.86;;
49800;SDS011;35698;50.232;30.540;2023-04-03T03:58:04;10.27;;;6.66;;
49800;SDS011;35698;50.232;30.540;2023-04-03T03:59:15;8.43;;;6.94;;
49800;SDS011;35698;50.232;30.540;2023-04-03T04:00:19;9.19;;;6.90;;
49800;SDS011;35698;50.232;30.540;2023-04-03T04:01:40;9.35;;;6.71;;
49800;SDS011;35698;50.232;30.540;2023-04-03T04:03:02;9.44;;;7.00;;
49800;SDS011;35698;50.232;30.540;2023-04-03T04:04:23;9.93;;;7.17;;
49800;SDS011;35698;50.232;30.540;2023-04-03T04:05:27;8.70;;;7.06;;
49800;SDS011;35698;50.232;30.540;2023-04-03T04:06:31;10.68;;;7.17;;
49800;SDS011;35698;50.232;30.540;2023-04-03T04:07:42;9.44;;;7.06;;
49800;SDS011;35698;50.232;30.540;2023-04-03T04:08:45;8.07;;;7.26;;
49800;SDS011;35698;50.232;30.540;2023-04-03T04:10:07;9.59;;;7.91;;
49800;SDS011;35698;50.232;30.540;2023-04-03T04:13:00;8.47;;;7.48;;
49800;SDS011;35698;50.232;30.540;2023-04-03T04:14:03;8.44;;;7.11;;
49800;SDS011;35698;50.232;30.540;2023-04-03T04:15:25;12.30;;;7.29;;
49800;SDS011;35698;50.232;30.540;2023-04-03T04:16:47;11.88;;;8.01;;
49800;SDS011;35698;50.232;30.540;2023-04-03T04:17:50;9.78;;;8.06;;
49800;SDS011;35698;50.232;30.540;2023-04-03T04:18:54;11.24;;;7.96;;
49800;SDS011;35698;50.232;30.540;2023-04-03T04:19:58;9.81;;;7.73;;
49800;SDS011;35698;50.232;30.540;2023-04-03T04:21:01;9.16;;;7.45;;
49800;SDS011;35698;50.232;30.540;2023-04-03T04:22:05;9.90;;;7.67;;
49800;SDS011;35698;50.232;30.540;2023-04-03T04:23:16;8.91;;;7.41;;
49800;SDS011;35698;50.232;30.540;2023-04-03T04:24:21;10.74;;;8.51;;
49800;SDS011;35698;50.232;30.540;2023-04-03T04:25:24;11.14;;;8.46;;
49800;SDS011;35698;50.232;30.540;2023-04-03T04:26:35;14.43;;;8.70;;
49800;SDS011;35698;50.232;30.540;2023-04-03T04:27:38;8.15;;;7.26;;
49800;SDS011;35698;50.232;30.540;2023-04-03T04:28:49;11.51;;;8.08;;
49800;SDS011;35698;50.232;30.540;2023-04-03T04:29:52;9.44;;;7.99;;
49800;SDS011;35698;50.232;30.540;2023-04-03T04:31:03;8.93;;;8.06;;
49800;SDS011;35698;50.232;30.540;2023-04-03T04:32:07;9.77;;;8.01;;
49800;SDS011;35698;50.232;30.540;2023-04-03T04:33:28;8.48;;;7.61;;
49800;SDS011;35698;50.232;30.540;2023-04-03T04:34:39;10.94;;;8.75;;
49800;SDS011;35698;50.232;30.540;2023-04-03T04:35:43;9.74;;;8.09;;
49800;SDS011;35698;50.232;30.540;2023-04-03T04:37:04;9.59;;;7.97;;
49800;SDS011;35698;50.232;30.540;2023-04-03T04:38:15;11.25;;;8.09;;
49800;SDS011;35698;50.232;30.540;2023-04-03T04:39:20;10.24;;;8.91;;
49800;SDS011;35698;50.232;30.540;2023-04-03T04:40:42;10.42;;;7.70;;
49800;SDS011;35698;50.232;30.540;2023-04-03T04:41:45;11.86;;;8.73;;
49800;SDS011;35698;50.232;30.540;2023-04-03T04:42:57;10.27;;;8.19;;
49800;SDS011;35698;50.232;30.540;2023-04-03T04:44:00;12.47;;;8.88;;
49800;SDS011;35698;50.232;30.540;2023-04-03T04:45:22;10.99;;;9.05;;
49800;SDS011;35698;50.232;30.540;2023-04-03T04:46:33;10.98;;;7.63;;
49800;SDS011;35698;50.232;30.540;2023-04-03T04:47:36;10.01;;;8.59;;
49800;SDS011;35698;50.232;30.540;2023-04-03T04:48:58;9.97;;;8.66;;
49800;SDS011;35698;50.232;30.540;2023-04-03T04:50:09;11.55;;;8.31;;
49800;SDS011;35698;50.232;30.540;2023-04-03T04:51:12;10.47;;;8.49;;
49800;SDS011;35698;50.232;30.540;2023-04-03T04:52:34;14.94;;;9.08;;
49800;SDS011;35698;50.232;30.540;2023-04-03T04:53:56;10.46;;;7.98;;
49800;SDS011;35698;50.232;30.540;2023-04-03T04:55:17;9.17;;;7.86;;
49800;SDS011;35698;50.232;30.540;2023-04-03T04:56:29;11.63;;;8.77;;
49800;SDS011;35698;50.232;30.540;2023-04-03T04:57:33;11.90;;;8.77;;
49800;SDS011;35698;50.232;30.540;2023-04-03T04:58:55;12.32;;;8.94;;
49800;SDS011;35698;50.232;30.540;2023-04-03T05:00:17;10.18;;;8.09;;
49800;SDS011;35698;50.232;30.540;2023-04-03T05:01:40;9.72;;;8.14;;
49800;SDS011;35698;50.232;30.540;2023-04-03T05:02:45;10.56;;;8.58;;
49800;SDS011;35698;50.232;30.540;2023-04-03T05:03:56;10.62;;;8.78;;
49800;SDS011;35698;50.232;30.540;2023-04-03T05:06:13;11.53;;;8.95;;
49800;SDS011;35698;50.232;30.540;2023-04-03T05:08:38;10.89;;;8.59;;
49800;SDS011;35698;50.232;30.540;2023-04-03T05:11:06;12.92;;;8.91;;
49800;SDS011;35698;50.232;30.540;2023-04-03T05:12:18;10.48;;;9.21;;
49800;SDS011;35698;50.232;30.540;2023-04-03T05:13:24;11.09;;;8.80;;
49800;SDS011;35698;50.232;30.540;2023-04-03T05:14:35;9.22;;;8.13;;
49800;SDS011;35698;50.232;30.540;2023-04-03T05:15:39;10.04;;;8.47;;
49800;SDS011;35698;50.232;30.540;2023-04-03T05:16:42;12.41;;;9.16;;
49800;SDS011;35698;50.232;30.540;2023-04-03T05:18:04;9.98;;;8.28;;
49800;SDS011;35698;50.232;30.540;2023-04-03T05:19:16;11.19;;;8.09;;
49800;SDS011;35698;50.232;30.540;2023-04-03T05:20:19;9.59;;;8.54;;
49800;SDS011;35698;50.232;30.540;2023-04-03T05:21:30;10.53;;;7.88;;
49800;SDS011;35698;50.232;30.540;2023-04-03T05:22:33;10.03;;;7.96;;
49800;SDS011;35698;50.232;30.540;2023-04-03T05:23:37;12.81;;;8.49;;
49800;SDS011;35698;50.232;30.540;2023-04-03T05:24:41;9.20;;;8.07;;
49800;SDS011;35698;50.232;30.540;2023-04-03T05:25:52;8.62;;;7.24;;
49800;SDS011;35698;50.232;30.540;2023-04-03T05:26:56;8.89;;;7.78;;
49800;SDS011;35698;50.232;30.540;2023-04-03T05:28:07;10.33;;;8.07;;
49800;SDS011;35698;50.232;30.540;2023-04-03T05:29:12;10.80;;;8.44;;
49800;SDS011;35698;50.232;30.540;2023-04-03T05:30:15;9.76;;;8.12;;
49800;SDS011;35698;50.232;30.540;2023-04-03T05:31:27;8.85;;;7.83;;
49800;SDS011;35698;50.232;30.540;2023-04-03T05:32:30;9.35;;;8.09;;
49800;SDS011;35698;50.232;30.540;2023-04-03T05:33:34;10.38;;;8.14;;
49800;SDS011;35698;50.232;30.540;2023-04-03T05:34:55;12.56;;;8.19;;
49800;SDS011;35698;50.232;30.540;2023-04-03T05:36:07;10.07;;;7.99;;
49800;SDS011;35698;50.232;30.540;2023-04-03T05:37:11;10.09;;;8.29;;
49800;SDS011;35698;50.232;30.540;2023-04-03T05:38:22;10.35;;;8.05;;
49800;SDS011;35698;50.232;30.540;2023-04-03T05:39:25;11.26;;;8.26;;
49800;SDS011;35698;50.232;30.540;2023-04-03T05:40:37;12.22;;;8.83;;
49800;SDS011;35698;50.232;30.540;2023-04-03T05:41:40;9.50;;;8.51;;
49800;SDS011;35698;50.232;30.540;2023-04-03T05:42:52;10.87;;;8.44;;
49800;SDS011;35698;50.232;30.540;2023-04-03T05:43:55;10.68;;;8.19;;
49800;SDS011;35698;50.232;30.540;2023-04-03T05:45:06;9.44;;;8.21;;
49800;SDS011;35698;50.232;30.540;2023-04-03T05:46:11;9.65;;;7.77;;
49800;SDS011;35698;50.232;30.540;2023-04-03T05:47:27;10.76;;;8.37;;
49800;SDS011;35698;50.232;30.540;2023-04-03T05:48:30;8.92;;;7.76;;
49800;SDS011;35698;50.232;30.540;2023-04-03T05:49:41;10.94;;;7.94;;
49800;SDS011;35698;50.232;30.540;2023-04-03T05:50:45;8.04;;;7.21;;
49800;SDS011;35698;50.232;30.540;2023-04-03T05:52:00;8.96;;;7.62;;
49800;SDS011;35698;50.232;30.540;2023-04-03T05:53:04;8.86;;;7.64;;
49800;SDS011;35698;50.232;30.540;2023-04-03T05:55:47;10.59;;;6.83;;
49800;SDS011;35698;50.232;30.540;2023-04-03T05:56:59;9.09;;;7.12;;
49800;SDS011;35698;50.232;30.540;2023-04-03T05:58:03;9.18;;;6.96;;
49800;SDS011;35698;50.232;30.540;2023-04-03T06:14:51;16.38;;;14.05;;
49800;SDS011;35698;50.232;30.540;2023-04-03T06:15:54;15.36;;;11.15;;
49800;SDS011;35698;50.232;30.540;2023-04-03T06:17:06;10.19;;;8.98;;
49800;SDS011;35698;50.232;30.540;2023-04-03T06:18:10;9.38;;;8.41;;
49800;SDS011;35698;50.232;30.540;2023-04-03T06:19:22;10.78;;;8.15;;
49800;SDS011;35698;50.232;30.540;2023-04-03T06:32:51;17.23;;;15.32;;
49800;SDS011;35698;50.232;30.540;2023-04-03T06:33:55;13.76;;;11.46;;
49800;SDS011;35698;50.232;30.540;2023-04-03T06:35:09;11.70;;;8.97;;
49800;SDS011;35698;50.232;30.540;2023-04-03T06:36:19;12.41;;;9.12;;
49800;SDS011;35698;50.232;30.540;2023-04-03T06:37:28;8.91;;;7.96;;
49800;SDS011;35698;50.232;30.540;2023-04-03T06:38:43;11.33;;;8.69;;
49800;SDS011;35698;50.232;30.540;2023-04-03T06:39:52;12.68;;;8.37;;
49800;SDS011;35698;50.232;30.540;2023-04-03T06:41:03;9.88;;;7.52;;
49800;SDS011;35698;50.232;30.540;2023-04-03T06:42:07;9.22;;;7.96;;
49800;SDS011;35698;50.232;30.540;2023-04-03T06:43:11;8.86;;;7.64;;
49800;SDS011;35698;50.232;30.540;2023-04-03T06:44:23;9.53;;;7.73;;
49800;SDS011;35698;50.232;30.540;2023-04-03T06:45:26;9.29;;;7.59;;
49800;SDS011;35698;50.232;30.540;2023-04-03T06:46:38;10.80;;;7.95;;
49800;SDS011;35698;50.232;30.540;2023-04-03T06:47:42;11.45;;;7.77;;
49800;SDS011;35698;50.232;30.540;2023-04-03T06:48:54;10.69;;;9.12;;
49800;SDS011;35698;50.232;30.540;2023-04-03T06:49:58;16.00;;;14.03;;
49800;SDS011;35698;50.232;30.540;2023-04-03T07:06:06;13.86;;;12.08;;
49800;SDS011;35698;50.232;30.540;2023-04-03T07:07:18;13.79;;;11.84;;
49800;SDS011;35698;50.232;30.540;2023-04-03T07:08:40;13.75;;;10.86;;
49800;SDS011;35698;50.232;30.540;2023-04-03T07:09:55;10.19;;;6.97;;
49800;SDS011;35698;50.232;30.540;2023-04-03T07:11:16;11.39;;;9.14;;
49800;SDS011;35698;50.232;30.540;2023-04-03T07:12:27;8.83;;;6.69;;
49800;SDS011;35698;50.232;30.540;2023-04-03T07:13:49;7.13;;;6.41;;
49800;SDS011;35698;50.232;30.540;2023-04-03T07:15:01;7.96;;;6.76;;
49800;SDS011;35698;50.232;30.540;2023-04-03T07:16:28;8.75;;;6.51;;
49800;SDS011;35698;50.232;30.540;2023-04-03T07:17:40;7.84;;;6.16;;
49800;SDS011;35698;50.232;30.540;2023-04-03T07:19:02;7.26;;;6.50;;
49800;SDS011;35698;50.232;30.540;2023-04-03T07:20:16;7.58;;;6.58;;
49800;SDS011;35698;50.232;30.540;2023-04-03T07:21:38;8.57;;;6.42;;
49800;SDS011;35698;50.232;30.540;2023-04-03T07:22:50;10.54;;;6.82;;
49800;SDS011;35698;50.232;30.540;2023-04-03T07:24:11;7.82;;;6.75;;
49800;SDS011;35698;50.232;30.540;2023-04-03T07:25:25;9.10;;;6.42;;
49800;SDS011;35698;50.232;30.540;2023-04-03T07:26:50;7.39;;;6.14;;
49800;SDS011;35698;50.232;30.540;2023-04-03T07:28:02;8.48;;;6.73;;
49800;SDS011;35698;50.232;30.540;2023-04-03T07:30:41;6.68;;;5.71;;
49800;SDS011;35698;50.232;30.540;2023-04-03T07:32:05;7.66;;;6.34;;
49800;SDS011;35698;50.232;30.540;2023-04-03T07:33:18;8.23;;;6.21;;
49800;SDS011;35698;50.232;30.540;2023-04-03T07:34:40;6.96;;;6.24;;
49800;SDS011;35698;50.232;30.540;2023-04-03T07:35:51;6.79;;;5.78;;
49800;SDS011;35698;50.232;30.540;2023-04-03T07:37:30;6.62;;;5.71;;
49800;SDS011;35698;50.232;30.540;2023-04-03T07:38:44;10.32;;;6.34;;
49800;SDS011;35698;50.232;30.540;2023-04-03T07:39:48;6.47;;;5.87;;
49800;SDS011;35698;50.232;30.540;2023-04-03T07:40:58;7.66;;;5.61;;
49800;SDS011;35698;50.232;30.540;2023-04-03T07:42:02;6.81;;;6.17;;
49800;SDS011;35698;50.232;30.540;2023-04-03T07:43:13;7.03;;;5.48;;
49800;SDS011;35698;50.232;30.540;2023-04-03T07:44:25;9.18;;;5.91;;
49800;SDS011;35698;50.232;30.540;2023-04-03T07:45:47;8.12;;;6.17;;
49800;SDS011;35698;50.232;30.540;2023-04-03T07:46:54;7.76;;;6.29;;
49800;SDS011;35698;50.232;30.540;2023-04-03T07:48:16;7.94;;;6.44;;
49800;SDS011;35698;50.232;30.540;2023-04-03T07:49:29;9.86;;;7.03;;
49800;SDS011;35698;50.232;30.540;2023-04-03T07:50:33;8.93;;;7.25;;
49800;SDS011;35698;50.232;30.540;2023-04-03T07:51:56;9.71;;;6.52;;
49800;SDS011;35698;50.232;30.540;2023-04-03T07:53:09;6.88;;;6.18;;
49800;SDS011;35698;50.232;30.540;2023-04-03T07:54:13;7.79;;;6.84;;
49800;SDS011;35698;50.232;30.540;2023-04-03T07:55:35;8.28;;;6.23;;
49800;SDS011;35698;50.232;30.540;2023-04-03T07:56:57;7.68;;;6.11;;
49800;SDS011;35698;50.232;30.540;2023-04-03T07:58:09;8.50;;;6.61;;
49800;SDS011;35698;50.232;30.540;2023-04-03T07:59:14;7.81;;;6.69;;
49800;SDS011;35698;50.232;30.540;2023-04-03T08:00:35;8.79;;;6.22;;
49800;SDS011;35698;50.232;30.540;2023-04-03T08:01:56;11.01;;;7.24;;
49800;SDS011;35698;50.232;30.540;2023-04-03T08:03:09;9.48;;;6.87;;
49800;SDS011;35698;50.232;30.540;2023-04-03T08:04:15;8.98;;;6.52;;
49800;SDS011;35698;50.232;30.540;2023-04-03T08:05:37;6.86;;;5.96;;
49800;SDS011;35698;50.232;30.540;2023-04-03T08:07:00;9.36;;;7.01;;
49800;SDS011;35698;50.232;30.540;2023-04-03T08:08:13;7.07;;;6.37;;